Horse Fly Airport

WA88 · Washington, Estados Unidos

METAR pasados WA88 · Horse Fly Airport

A continuación puedes ver los METAR de los últimos días. Selecciona un año para ver los METAR más antiguos, desde el año 2007 en adelante.

19 de julio de 2024

Hora Código Tiempo Temp. Visibilidad Cielo nuboso Viento METAR/SPECI
10:53
V
19 °C 10 mi - 210° 210° 8 - 17 kt METAR KBLI 191753Z 21008G17KT 10SM CLR 19/14 A3019 RMK AO2 SLP230 T01890139 10189 20156 51007
09:53
V
18 °C 10 mi - 190° 190° 7 kt METAR KBLI 191653Z 19007KT 10SM CLR 18/14 A3019 RMK AO2 SLP228 T01780139
08:53
V
17 °C 10 mi - 180° 180° 7 - 16 kt METAR KBLI 191553Z 18007G16KT 10SM CLR 17/14 A3018 RMK AO2 SLP226 T01670139
07:53
V
17 °C 10 mi - 180° 180° 9 kt METAR KBLI 191453Z 18009KT 10SM CLR 17/14 A3017 RMK AO2 SLP223 T01670139 53014
06:53
V
16 °C 10 mi - 180° 180° 7 kt METAR KBLI 191353Z 18007KT 10SM CLR 16/13 A3016 RMK AO2 SLP218 T01610133
05:53
V
16 °C 10 mi - 210° 210° 3 kt METAR KBLI 191253Z AUTO 21003KT 10SM CLR 16/13 A3014 RMK AO2 SLP211 T01560128
04:53
V
16 °C 10 mi - 160° 160° 7 kt METAR KBLI 191153Z AUTO 16007KT 10SM CLR 16/13 A3013 RMK AO2 SLP208 T01560128 10178 20150 53008
03:53
V
16 °C 10 mi - 180° 180° 3 kt METAR KBLI 191053Z AUTO 18003KT 10SM CLR 16/13 A3012 RMK AO2 SLP204 T01560128
02:53
V
16 °C 10 mi - 180° 180° 3 kt METAR KBLI 190953Z AUTO 18003KT 10SM CLR 16/13 A3011 RMK AO2 SLP200 T01560128
01:53
V
17 °C 10 mi - 180° 180° 4 kt METAR KBLI 190853Z AUTO 18004KT 10SM CLR 17/13 A3011 RMK AO2 SLP199 T01670133 51013
00:53
V
17 °C 10 mi - 180° 180° 6 kt METAR KBLI 190753Z AUTO 18006KT 10SM CLR 17/14 A3010 RMK AO2 SLP196 T01670139 402220156

18 de julio de 2024

Hora Código Tiempo Temp. Visibilidad Cielo nuboso Viento METAR/SPECI
23:53
V
17 °C 10 mi - 170° 170° 6 kt METAR KBLI 190653Z AUTO 17006KT 10SM CLR 17/13 A3009 RMK AO2 SLP192 T01720133
22:53
V
18 °C 10 mi - 190° 190° 9 - 18 kt METAR KBLI 190553Z AUTO 19009G18KT 10SM CLR 18/14 A3007 RMK AO2 SLP188 T01780144 10211 20178 53014
21:53
V
19 °C 10 mi - 170° 170° 9 - 18 kt METAR KBLI 190453Z 17009G18KT 10SM CLR 19/14 A3005 RMK AO2 SLP181 T01940139
20:53
V
20 °C 10 mi - 180° 180° 11 kt METAR KBLI 190353Z 18011KT 10SM CLR 20/14 A3004 RMK AO2 SLP178 T02000139
19:53
V
20 °C 10 mi - 190° 190° 11 - 20 kt METAR KBLI 190253Z 19011G20KT 10SM CLR 20/14 A3003 RMK AO2 SLP174 T02000139 53001
18:53
V
20 °C 10 mi - 180° 180° 11 - 19 kt METAR KBLI 190153Z 18011G19KT 10SM CLR 20/14 A3002 RMK AO2 SLP170 T02000144
17:53
V
21 °C 10 mi - 180° 180° 7 kt METAR KBLI 190053Z 18007KT 10SM CLR 21/14 A3002 RMK AO2 SLP170 T02060139
16:53
V
21 °C 10 mi - 190° 190° 10 - 17 kt METAR KBLI 182353Z 19010G17KT 10SM CLR 21/14 A3002 RMK AO2 SLP173 T02060144 10222 20189 58012
15:53
V
22 °C 10 mi - 200° 200° 7 kt METAR KBLI 182253Z 20007KT 10SM CLR 22/15 A3004 RMK AO2 SLP176 T02170150
14:53
V
22 °C 10 mi - 190° 190° 11 - 16 kt METAR KBLI 182153Z 19011G16KT 10SM CLR 22/14 A3005 RMK AO2 SLP180 T02220144
13:53
V
22 °C 10 mi - 180° 180° 9 - 17 kt METAR KBLI 182053Z 18009G17KT 150V220 10SM CLR 22/15 A3006 RMK AO2 SLP183 T02220150 58004
12:53
V
21 °C 10 mi - 180° 180° 9 kt METAR KBLI 181953Z 18009KT 10SM CLR 21/14 A3006 RMK AO2 SLP185 T02110144
11:53
V
20 °C 10 mi - 180° 180° 10 kt METAR KBLI 181853Z 18010KT 10SM CLR 20/14 A3007 RMK AO2 SLP187 T02000144
10:53
V
19 °C 10 mi - 190° 190° 8 kt METAR KBLI 181753Z 19008KT 10SM CLR 19/14 A3007 RMK AO2 SLP188 T01890144 10189 20156 58001
09:53
V
18 °C 10 mi - 190° 190° 7 kt METAR KBLI 181653Z 19007KT 10SM CLR 18/14 A3008 RMK AO2 SLP189 T01780139
08:53
V
17 °C 10 mi - 180° 180° 7 kt METAR KBLI 181553Z 18007KT 160V230 10SM CLR 17/14 A3007 RMK AO2 SLP189 T01720139
07:53
V
17 °C 10 mi - 190° 190° 9 - 14 kt METAR KBLI 181453Z 19009G14KT 10SM CLR 17/14 A3007 RMK AO2 SLP188 T01670139 51009
06:53
V
16 °C 10 mi - 180° 180° 5 kt METAR KBLI 181353Z 18005KT 10SM CLR 16/14 A3007 RMK AO2 SLP186 T01560139
05:53
V
16 °C 10 mi - 180° 180° 7 kt METAR KBLI 181253Z AUTO 18007KT 10SM CLR 16/14 A3006 RMK AO2 SLP183 T01560144
04:53
V
16 °C 10 mi - 180° 180° 7 kt METAR KBLI 181153Z AUTO 18007KT 10SM CLR 16/14 A3005 RMK AO2 SLP180 T01560139 10200 20156 53016
03:53
V
16 °C 10 mi - 180° 180° 9 kt METAR KBLI 181053Z AUTO 18009KT 10SM CLR 16/14 A3003 RMK AO2 SLP173 T01610144
02:53
V
17 °C 10 mi - 180° 180° 10 - 17 kt METAR KBLI 180953Z AUTO 18010G17KT 10SM CLR 17/14 A3001 RMK AO2 SLP168 T01670144
01:53
V
17 °C 10 mi - 170° 170° 11 - 21 kt METAR KBLI 180853Z AUTO 17011G21KT 10SM CLR 17/14 A3000 RMK AO2 SLP164 T01720144 51012
00:53
V
18 °C 10 mi - 180° 180° 9 - 21 kt METAR KBLI 180753Z AUTO 18009G21KT 10SM CLR 18/14 A2999 RMK AO2 SLP161 T01830139 402610133

17 de julio de 2024

Hora Código Tiempo Temp. Visibilidad Cielo nuboso Viento METAR/SPECI
23:53
V
19 °C 10 mi - 170° 170° 12 - 22 kt METAR KBLI 180653Z AUTO 17012G22KT 10SM CLR 19/13 A2998 RMK AO2 SLP157 T01890133
22:53
V
19 °C 10 mi - 180° 180° 10 - 19 kt METAR KBLI 180553Z AUTO 18010G19KT 10SM CLR 19/14 A2997 RMK AO2 SLP152 T01940139 10233 20194 53007
21:53
V
19 °C 10 mi - 180° 180° 9 kt METAR KBLI 180453Z 18009KT 10SM CLR 19/16 A2996 RMK AO2 SLP151 T01940156
20:53
V
21 °C 10 mi - Var Var 5 kt METAR KBLI 180353Z VRB05KT 10SM CLR 21/16 A2995 RMK AO2 SLP145 T02060161
19:53
V
22 °C 10 mi - 200° 200° 6 kt METAR KBLI 180253Z 20006KT 10SM CLR 22/16 A2994 RMK AO2 SLP144 T02220161 53002
18:53
V
23 °C 10 mi - 180° 180° 9 kt METAR KBLI 180153Z 18009KT 10SM CLR 23/14 A2994 RMK AO2 SLP142 T02280144
17:53
V
22 °C 10 mi - 190° 190° 10 - 18 kt METAR KBLI 180053Z 19010G18KT 10SM CLR 22/16 A2994 RMK AO2 SLP142 T02220156
16:53
V
23 °C 10 mi - 190° 190° 6 kt METAR KBLI 172353Z 19006KT 10SM CLR 23/16 A2994 RMK AO2 SLP142 T02280156 10261 20228 55007
15:53
V
25 °C 10 mi - 210° 210° 6 kt METAR KBLI 172253Z 21006KT 10SM CLR 25/16 A2993 RMK AO2 SLP140 T02500156
14:53
V
25 °C 10 mi - 190° 190° 5 kt METAR KBLI 172153Z 19005KT 10SM CLR 25/16 A2994 RMK AO2 SLP144 T02500161
13:53
V
24 °C 10 mi - 180° 180° 6 kt METAR KBLI 172053Z 18006KT 10SM CLR 24/15 A2996 RMK AO2 SLP148 T02390150 55000
12:53
V
24 °C 10 mi - Var Var 5 kt METAR KBLI 171953Z VRB05KT 10SM CLR 24/16 A2995 RMK AO2 SLP148 T02440161
11:53
V
26 °C 10 mi - Var Var 4 kt METAR KBLI 171853Z VRB04KT 10SM CLR 26/16 A2995 RMK AO2 SLP147 T02610156
10:53
V
24 °C 10 mi - 230° 230° 4 kt METAR KBLI 171753Z 23004KT 10SM CLR 24/15 A2996 RMK AO2 SLP149 T02390150 10239 20133 58003
09:53
V
22 °C 10 mi - 160° 160° 4 kt METAR KBLI 171653Z 16004KT 10SM CLR 22/16 A2997 RMK AO2 SLP152 T02220156
08:53
V
20 °C 10 mi - 170° 170° 7 kt METAR KBLI 171553Z 17007KT 10SM CLR 20/15 A2997 RMK AO2 SLP153 T02000150
07:53
V
19 °C 10 mi - 180° 180° 4 kt METAR KBLI 171453Z 18004KT 10SM CLR 19/17 A2996 RMK AO2 SLP152 T01890167 53011
06:53
V
17 °C 10 mi - 360° 360° 0 kt METAR KBLI 171353Z 00000KT 10SM CLR 17/16 A2996 RMK AO2 SLP148 T01720161
06:00
V
14 °C 10 mi - 360° 360° 0 kt METAR KBLI 171300Z AUTO 00000KT 10SM CLR 14/14 A2994 RMK AO2 T01390139 $
05:53
I
14 °C 1¾ mi - 360° 360° 0 kt METAR KBLI 171253Z AUTO 00000KT 1 3/4SM BR CLR 14/14 A2993 RMK AO2 SLP140 T01390139 $
05:34
V
13 °C 10 mi - 360° 360° 0 kt METAR KBLI 171234Z AUTO 00000KT 10SM CLR 13/13 A2993 RMK AO2 T01330133
05:18
I
14 °C 1¼ mi - 360° 360° 0 kt METAR KBLI 171218Z AUTO 00000KT 1 1/4SM R16/1400VP6000FT BR CLR 14/14 A2993 RMK AO2 VIS 1/4V5 T01390139
04:53
V
14 °C 10 mi - 360° 360° 0 kt METAR KBLI 171153Z AUTO 00000KT 10SM CLR 14/14 A2992 RMK AO2 SLP137 T01440139 10178 20139 53003
03:53
V
15 °C 10 mi - 360° 360° 0 kt METAR KBLI 171053Z AUTO 00000KT 10SM CLR 15/15 A2992 RMK AO2 SLP135 T01500150
02:53
V
15 °C 10 mi - 360° 360° 0 kt METAR KBLI 170953Z AUTO 00000KT 10SM CLR 15/14 A2991 RMK AO2 SLP133 T01500144
01:53
V
16 °C 10 mi - 360° 360° 0 kt METAR KBLI 170853Z AUTO 00000KT 10SM CLR 16/16 A2991 RMK AO2 SLP134 T01560156 50004
00:53
V
16 °C 10 mi - 360° 360° 0 kt METAR KBLI 170753Z AUTO 00000KT 10SM CLR 16/16 A2991 RMK AO2 SLP134 T01610156 402830122

16 de julio de 2024

Hora Código Tiempo Temp. Visibilidad Cielo nuboso Viento METAR/SPECI
23:53
V
17 °C 10 mi - 360° 360° 0 kt METAR KBLI 170653Z AUTO 00000KT 10SM CLR 17/16 A2990 RMK AO2 SLP131 T01720156
22:53
V
17 °C 10 mi - 360° 360° 0 kt METAR KBLI 170553Z AUTO 00000KT 10SM CLR 17/16 A2990 RMK AO2 SLP130 T01720156 10278 20172 53003
Cambiar esta información